sensor_id;sensor_type;location;lat;lon;timestamp;P1;durP1;ratioP1;P2;durP2;ratioP2
21356;SDS011;10836;53.068;18.234;2023-07-29T00:01:56;7.38;;;4.63;;
21356;SDS011;10836;53.068;18.234;2023-07-29T00:04:23;5.72;;;4.35;;
21356;SDS011;10836;53.068;18.234;2023-07-29T00:06:50;8.40;;;4.57;;
21356;SDS011;10836;53.068;18.234;2023-07-29T00:09:17;7.40;;;4.57;;
21356;SDS011;10836;53.068;18.234;2023-07-29T00:11:44;7.20;;;4.88;;
21356;SDS011;10836;53.068;18.234;2023-07-29T00:14:11;6.50;;;4.78;;
21356;SDS011;10836;53.068;18.234;2023-07-29T00:16:38;5.32;;;4.40;;
21356;SDS011;10836;53.068;18.234;2023-07-29T00:19:06;6.68;;;4.80;;
21356;SDS011;10836;53.068;18.234;2023-07-29T00:21:32;5.15;;;3.95;;
21356;SDS011;10836;53.068;18.234;2023-07-29T00:23:59;5.10;;;4.60;;
21356;SDS011;10836;53.068;18.234;2023-07-29T00:26:27;5.50;;;4.60;;
21356;SDS011;10836;53.068;18.234;2023-07-29T00:28:56;5.13;;;4.13;;
21356;SDS011;10836;53.068;18.234;2023-07-29T00:31:23;4.77;;;4.10;;
21356;SDS011;10836;53.068;18.234;2023-07-29T00:33:50;8.97;;;4.43;;
21356;SDS011;10836;53.068;18.234;2023-07-29T00:36:19;6.85;;;4.72;;
21356;SDS011;10836;53.068;18.234;2023-07-29T00:38:47;4.88;;;4.20;;
21356;SDS011;10836;53.068;18.234;2023-07-29T00:41:14;7.13;;;4.37;;
21356;SDS011;10836;53.068;18.234;2023-07-29T00:43:42;4.47;;;3.97;;
21356;SDS011;10836;53.068;18.234;2023-07-29T00:46:09;5.80;;;3.47;;
21356;SDS011;10836;53.068;18.234;2023-07-29T00:48:36;5.87;;;3.93;;
21356;SDS011;10836;53.068;18.234;2023-07-29T00:51:04;4.90;;;4.28;;
21356;SDS011;10836;53.068;18.234;2023-07-29T00:53:31;5.03;;;3.88;;
21356;SDS011;10836;53.068;18.234;2023-07-29T00:55:58;4.60;;;3.63;;
21356;SDS011;10836;53.068;18.234;2023-07-29T00:58:25;3.92;;;3.47;;
21356;SDS011;10836;53.068;18.234;2023-07-29T01:00:53;4.72;;;3.60;;
21356;SDS011;10836;53.068;18.234;2023-07-29T01:03:21;7.40;;;4.57;;
21356;SDS011;10836;53.068;18.234;2023-07-29T01:05:57;5.60;;;4.50;;
21356;SDS011;10836;53.068;18.234;2023-07-29T01:08:38;5.00;;;4.50;;
21356;SDS011;10836;53.068;18.234;2023-07-29T01:11:16;5.80;;;4.70;;
21356;SDS011;10836;53.068;18.234;2023-07-29T01:13:54;7.95;;;4.40;;
21356;SDS011;10836;53.068;18.234;2023-07-29T01:16:33;7.38;;;4.22;;
21356;SDS011;10836;53.068;18.234;2023-07-29T01:19:05;4.18;;;3.60;;
21356;SDS011;10836;53.068;18.234;2023-07-29T01:21:35;5.90;;;4.40;;
21356;SDS011;10836;53.068;18.234;2023-07-29T01:24:03;4.20;;;3.80;;
21356;SDS011;10836;53.068;18.234;2023-07-29T01:26:31;6.83;;;4.17;;
21356;SDS011;10836;53.068;18.234;2023-07-29T01:28:59;5.20;;;4.13;;
21356;SDS011;10836;53.068;18.234;2023-07-29T01:31:37;5.93;;;4.60;;
21356;SDS011;10836;53.068;18.234;2023-07-29T01:34:24;4.72;;;3.83;;
21356;SDS011;10836;53.068;18.234;2023-07-29T01:36:57;5.57;;;4.63;;
21356;SDS011;10836;53.068;18.234;2023-07-29T01:39:29;5.17;;;4.23;;
21356;SDS011;10836;53.068;18.234;2023-07-29T01:41:59;6.20;;;4.17;;
21356;SDS011;10836;53.068;18.234;2023-07-29T01:44:27;6.33;;;4.37;;
21356;SDS011;10836;53.068;18.234;2023-07-29T01:46:58;8.13;;;3.93;;
21356;SDS011;10836;53.068;18.234;2023-07-29T01:49:26;4.63;;;4.13;;
21356;SDS011;10836;53.068;18.234;2023-07-29T01:51:53;6.50;;;4.50;;
21356;SDS011;10836;53.068;18.234;2023-07-29T01:54:20;9.32;;;4.88;;
21356;SDS011;10836;53.068;18.234;2023-07-29T01:56:47;7.60;;;4.37;;
21356;SDS011;10836;53.068;18.234;2023-07-29T01:59:14;5.07;;;4.07;;
21356;SDS011;10836;53.068;18.234;2023-07-29T02:01:42;5.27;;;3.80;;
21356;SDS011;10836;53.068;18.234;2023-07-29T02:04:09;5.87;;;4.60;;
21356;SDS011;10836;53.068;18.234;2023-07-29T02:06:36;6.63;;;4.30;;
21356;SDS011;10836;53.068;18.234;2023-07-29T02:09:04;5.13;;;4.13;;
21356;SDS011;10836;53.068;18.234;2023-07-29T02:11:31;5.85;;;4.10;;
21356;SDS011;10836;53.068;18.234;2023-07-29T02:13:58;5.27;;;4.20;;
21356;SDS011;10836;53.068;18.234;2023-07-29T02:16:26;5.13;;;3.90;;
21356;SDS011;10836;53.068;18.234;2023-07-29T02:18:54;5.20;;;3.80;;
21356;SDS011;10836;53.068;18.234;2023-07-29T02:21:22;8.57;;;4.30;;
21356;SDS011;10836;53.068;18.234;2023-07-29T02:23:49;6.33;;;3.97;;
21356;SDS011;10836;53.068;18.234;2023-07-29T02:26:17;4.67;;;3.73;;
21356;SDS011;10836;53.068;18.234;2023-07-29T02:28:44;4.73;;;3.83;;
21356;SDS011;10836;53.068;18.234;2023-07-29T02:31:20;7.30;;;3.93;;
21356;SDS011;10836;53.068;18.234;2023-07-29T02:33:48;5.07;;;3.97;;
21356;SDS011;10836;53.068;18.234;2023-07-29T02:36:17;6.60;;;4.50;;
21356;SDS011;10836;53.068;18.234;2023-07-29T02:38:44;7.83;;;4.10;;
21356;SDS011;10836;53.068;18.234;2023-07-29T02:41:13;4.43;;;3.50;;
21356;SDS011;10836;53.068;18.234;2023-07-29T02:43:42;3.73;;;3.20;;
21356;SDS011;10836;53.068;18.234;2023-07-29T02:46:10;7.70;;;5.20;;
21356;SDS011;10836;53.068;18.234;2023-07-29T02:48:37;7.17;;;5.07;;
21356;SDS011;10836;53.068;18.234;2023-07-29T02:51:04;6.47;;;5.03;;
21356;SDS011;10836;53.068;18.234;2023-07-29T02:53:31;6.30;;;4.83;;
21356;SDS011;10836;53.068;18.234;2023-07-29T02:55:57;6.90;;;5.38;;
21356;SDS011;10836;53.068;18.234;2023-07-29T02:58:25;8.93;;;5.13;;
21356;SDS011;10836;53.068;18.234;2023-07-29T03:00:52;8.80;;;5.77;;
21356;SDS011;10836;53.068;18.234;2023-07-29T03:03:20;7.57;;;5.38;;
21356;SDS011;10836;53.068;18.234;2023-07-29T03:05:47;8.27;;;5.70;;
21356;SDS011;10836;53.068;18.234;2023-07-29T03:08:14;7.77;;;6.03;;
21356;SDS011;10836;53.068;18.234;2023-07-29T03:10:41;10.40;;;5.90;;
21356;SDS011;10836;53.068;18.234;2023-07-29T03:13:09;8.83;;;4.80;;
21356;SDS011;10836;53.068;18.234;2023-07-29T03:15:35;8.27;;;5.47;;
21356;SDS011;10836;53.068;18.234;2023-07-29T03:18:02;8.77;;;5.10;;
21356;SDS011;10836;53.068;18.234;2023-07-29T03:20:29;8.30;;;5.03;;
21356;SDS011;10836;53.068;18.234;2023-07-29T03:22:57;8.33;;;5.17;;
21356;SDS011;10836;53.068;18.234;2023-07-29T03:25:24;8.77;;;5.30;;
21356;SDS011;10836;53.068;18.234;2023-07-29T03:27:51;7.10;;;5.60;;
21356;SDS011;10836;53.068;18.234;2023-07-29T03:30:21;5.90;;;4.57;;
21356;SDS011;10836;53.068;18.234;2023-07-29T03:32:50;11.33;;;5.70;;
21356;SDS011;10836;53.068;18.234;2023-07-29T03:35:17;7.57;;;4.97;;
21356;SDS011;10836;53.068;18.234;2023-07-29T03:37:44;6.13;;;4.70;;
21356;SDS011;10836;53.068;18.234;2023-07-29T03:40:12;6.27;;;4.37;;
21356;SDS011;10836;53.068;18.234;2023-07-29T03:42:39;5.43;;;4.47;;
21356;SDS011;10836;53.068;18.234;2023-07-29T03:45:06;8.60;;;5.23;;
21356;SDS011;10836;53.068;18.234;2023-07-29T03:47:33;6.83;;;4.13;;
21356;SDS011;10836;53.068;18.234;2023-07-29T03:50:02;6.17;;;4.63;;
21356;SDS011;10836;53.068;18.234;2023-07-29T03:52:29;8.03;;;5.00;;
21356;SDS011;10836;53.068;18.234;2023-07-29T03:54:56;6.28;;;4.80;;
21356;SDS011;10836;53.068;18.234;2023-07-29T03:57:23;9.17;;;5.17;;
21356;SDS011;10836;53.068;18.234;2023-07-29T03:59:50;6.73;;;4.70;;
21356;SDS011;10836;53.068;18.234;2023-07-29T04:02:17;10.70;;;7.10;;
21356;SDS011;10836;53.068;18.234;2023-07-29T04:04:44;9.02;;;5.25;;
21356;SDS011;10836;53.068;18.234;2023-07-29T04:07:14;7.97;;;5.83;;
21356;SDS011;10836;53.068;18.234;2023-07-29T04:09:41;11.33;;;6.33;;
21356;SDS011;10836;53.068;18.234;2023-07-29T04:12:10;10.43;;;8.00;;
21356;SDS011;10836;53.068;18.234;2023-07-29T04:14:37;10.20;;;7.87;;
21356;SDS011;10836;53.068;18.234;2023-07-29T04:17:04;8.73;;;7.33;;
21356;SDS011;10836;53.068;18.234;2023-07-29T04:19:31;14.27;;;8.40;;
21356;SDS011;10836;53.068;18.234;2023-07-29T04:21:59;11.57;;;7.27;;
21356;SDS011;10836;53.068;18.234;2023-07-29T04:24:26;9.55;;;7.35;;
21356;SDS011;10836;53.068;18.234;2023-07-29T04:26:53;12.83;;;7.87;;
21356;SDS011;10836;53.068;18.234;2023-07-29T04:29:20;11.37;;;7.17;;
21356;SDS011;10836;53.068;18.234;2023-07-29T04:31:49;10.10;;;7.35;;
21356;SDS011;10836;53.068;18.234;2023-07-29T04:34:17;10.27;;;6.70;;
21356;SDS011;10836;53.068;18.234;2023-07-29T04:36:46;10.98;;;7.20;;
21356;SDS011;10836;53.068;18.234;2023-07-29T04:39:14;10.83;;;6.50;;
21356;SDS011;10836;53.068;18.234;2023-07-29T04:41:42;8.43;;;6.67;;
21356;SDS011;10836;53.068;18.234;2023-07-29T04:44:08;10.97;;;6.33;;
21356;SDS011;10836;53.068;18.234;2023-07-29T04:46:36;8.48;;;6.50;;
21356;SDS011;10836;53.068;18.234;2023-07-29T04:49:04;8.70;;;6.50;;
21356;SDS011;10836;53.068;18.234;2023-07-29T04:51:31;9.18;;;5.97;;
21356;SDS011;10836;53.068;18.234;2023-07-29T04:54:00;9.73;;;6.40;;
21356;SDS011;10836;53.068;18.234;2023-07-29T04:56:27;11.32;;;6.85;;
21356;SDS011;10836;53.068;18.234;2023-07-29T04:58:54;8.30;;;5.50;;
21356;SDS011;10836;53.068;18.234;2023-07-29T05:01:21;9.68;;;6.13;;
21356;SDS011;10836;53.068;18.234;2023-07-29T05:03:48;8.52;;;6.78;;
21356;SDS011;10836;53.068;18.234;2023-07-29T05:06:15;8.63;;;7.00;;
21356;SDS011;10836;53.068;18.234;2023-07-29T05:08:42;8.70;;;6.68;;
21356;SDS011;10836;53.068;18.234;2023-07-29T05:11:09;7.07;;;6.32;;
21356;SDS011;10836;53.068;18.234;2023-07-29T05:13:36;14.32;;;7.40;;
21356;SDS011;10836;53.068;18.234;2023-07-29T05:16:04;10.07;;;7.10;;
21356;SDS011;10836;53.068;18.234;2023-07-29T05:18:32;9.50;;;6.57;;
21356;SDS011;10836;53.068;18.234;2023-07-29T05:20:59;8.80;;;6.25;;
21356;SDS011;10836;53.068;18.234;2023-07-29T05:23:27;8.80;;;6.65;;
21356;SDS011;10836;53.068;18.234;2023-07-29T05:25:54;7.78;;;6.70;;
21356;SDS011;10836;53.068;18.234;2023-07-29T05:28:21;8.35;;;6.05;;
21356;SDS011;10836;53.068;18.234;2023-07-29T05:30:48;8.20;;;6.72;;
21356;SDS011;10836;53.068;18.234;2023-07-29T05:33:15;8.48;;;6.28;;
21356;SDS011;10836;53.068;18.234;2023-07-29T05:35:43;8.70;;;6.38;;
21356;SDS011;10836;53.068;18.234;2023-07-29T05:38:10;10.25;;;6.68;;
21356;SDS011;10836;53.068;18.234;2023-07-29T05:40:37;7.35;;;5.93;;
21356;SDS011;10836;53.068;18.234;2023-07-29T05:43:04;11.13;;;6.75;;
21356;SDS011;10836;53.068;18.234;2023-07-29T05:45:32;7.63;;;6.60;;
21356;SDS011;10836;53.068;18.234;2023-07-29T05:47:59;10.90;;;6.30;;
21356;SDS011;10836;53.068;18.234;2023-07-29T05:50:26;8.88;;;7.40;;
21356;SDS011;10836;53.068;18.234;2023-07-29T05:52:53;8.60;;;6.78;;
21356;SDS011;10836;53.068;18.234;2023-07-29T05:55:20;8.57;;;6.78;;
21356;SDS011;10836;53.068;18.234;2023-07-29T05:57:47;11.40;;;7.15;;
21356;SDS011;10836;53.068;18.234;2023-07-29T06:00:14;9.18;;;7.22;;
21356;SDS011;10836;53.068;18.234;2023-07-29T06:02:41;12.23;;;8.48;;
21356;SDS011;10836;53.068;18.234;2023-07-29T06:05:13;10.30;;;7.75;;
21356;SDS011;10836;53.068;18.234;2023-07-29T06:07:41;9.70;;;7.15;;
21356;SDS011;10836;53.068;18.234;2023-07-29T06:10:12;10.00;;;6.40;;
21356;SDS011;10836;53.068;18.234;2023-07-29T06:12:40;7.88;;;5.07;;
21356;SDS011;10836;53.068;18.234;2023-07-29T06:15:07;6.15;;;4.18;;
21356;SDS011;10836;53.068;18.234;2023-07-29T06:17:35;7.25;;;4.50;;
21356;SDS011;10836;53.068;18.234;2023-07-29T06:20:02;4.68;;;3.55;;
21356;SDS011;10836;53.068;18.234;2023-07-29T06:22:29;9.98;;;3.70;;
21356;SDS011;10836;53.068;18.234;2023-07-29T06:24:56;4.90;;;3.72;;
21356;SDS011;10836;53.068;18.234;2023-07-29T06:27:23;5.85;;;3.95;;
21356;SDS011;10836;53.068;18.234;2023-07-29T06:29:52;6.07;;;4.07;;
21356;SDS011;10836;53.068;18.234;2023-07-29T06:32:19;5.97;;;4.03;;
21356;SDS011;10836;53.068;18.234;2023-07-29T06:34:46;4.28;;;3.20;;
21356;SDS011;10836;53.068;18.234;2023-07-29T06:37:13;5.97;;;3.83;;
21356;SDS011;10836;53.068;18.234;2023-07-29T06:39:40;5.40;;;3.00;;
21356;SDS011;10836;53.068;18.234;2023-07-29T06:42:06;5.90;;;3.03;;
21356;SDS011;10836;53.068;18.234;2023-07-29T06:44:34;3.58;;;2.88;;
21356;SDS011;10836;53.068;18.234;2023-07-29T06:47:01;5.45;;;2.83;;
21356;SDS011;10836;53.068;18.234;2023-07-29T06:49:28;5.97;;;3.35;;
21356;SDS011;10836;53.068;18.234;2023-07-29T06:51:55;4.25;;;3.05;;
21356;SDS011;10836;53.068;18.234;2023-07-29T06:54:25;4.78;;;3.00;;
21356;SDS011;10836;53.068;18.234;2023-07-29T06:56:55;10.90;;;3.03;;
21356;SDS011;10836;53.068;18.234;2023-07-29T06:59:22;6.03;;;2.55;;
21356;SDS011;10836;53.068;18.234;2023-07-29T07:01:50;3.35;;;2.88;;
21356;SDS011;10836;53.068;18.234;2023-07-29T07:04:18;3.15;;;2.35;;
21356;SDS011;10836;53.068;18.234;2023-07-29T07:06:44;2.90;;;1.77;;
21356;SDS011;10836;53.068;18.234;2023-07-29T07:09:11;1.75;;;1.65;;
21356;SDS011;10836;53.068;18.234;2023-07-29T07:11:38;2.50;;;2.10;;
21356;SDS011;10836;53.068;18.234;2023-07-29T07:14:05;2.10;;;1.90;;
21356;SDS011;10836;53.068;18.234;2023-07-29T07:16:32;2.97;;;1.98;;
21356;SDS011;10836;53.068;18.234;2023-07-29T07:18:59;2.03;;;1.70;;
21356;SDS011;10836;53.068;18.234;2023-07-29T07:21:26;2.75;;;1.90;;
21356;SDS011;10836;53.068;18.234;2023-07-29T07:23:53;2.30;;;1.60;;
21356;SDS011;10836;53.068;18.234;2023-07-29T07:26:20;2.45;;;1.63;;
21356;SDS011;10836;53.068;18.234;2023-07-29T07:28:47;3.53;;;1.73;;
21356;SDS011;10836;53.068;18.234;2023-07-29T07:31:14;3.17;;;2.00;;
21356;SDS011;10836;53.068;18.234;2023-07-29T07:33:46;2.88;;;1.90;;
21356;SDS011;10836;53.068;18.234;2023-07-29T07:36:13;2.90;;;1.40;;
21356;SDS011;10836;53.068;18.234;2023-07-29T07:38:40;2.35;;;1.67;;
21356;SDS011;10836;53.068;18.234;2023-07-29T07:41:06;2.13;;;1.40;;
21356;SDS011;10836;53.068;18.234;2023-07-29T07:43:34;2.00;;;1.40;;
21356;SDS011;10836;53.068;18.234;2023-07-29T07:46:01;1.70;;;1.20;;
21356;SDS011;10836;53.068;18.234;2023-07-29T07:48:28;1.60;;;1.50;;
21356;SDS011;10836;53.068;18.234;2023-07-29T07:50:55;2.55;;;1.40;;
21356;SDS011;10836;53.068;18.234;2023-07-29T07:53:22;4.60;;;1.48;;
21356;SDS011;10836;53.068;18.234;2023-07-29T07:55:52;2.22;;;1.40;;
21356;SDS011;10836;53.068;18.234;2023-07-29T07:58:19;2.67;;;1.30;;
21356;SDS011;10836;53.068;18.234;2023-07-29T08:00:46;1.45;;;1.20;;
21356;SDS011;10836;53.068;18.234;2023-07-29T08:03:13;4.40;;;1.67;;
21356;SDS011;10836;53.068;18.234;2023-07-29T08:05:40;1.42;;;1.33;;
21356;SDS011;10836;53.068;18.234;2023-07-29T08:08:07;3.30;;;1.58;;
21356;SDS011;10836;53.068;18.234;2023-07-29T08:10:34;5.15;;;1.73;;
21356;SDS011;10836;53.068;18.234;2023-07-29T08:13:01;3.47;;;1.77;;
21356;SDS011;10836;53.068;18.234;2023-07-29T08:15:28;4.57;;;1.67;;
21356;SDS011;10836;53.068;18.234;2023-07-29T08:17:55;5.63;;;1.73;;
21356;SDS011;10836;53.068;18.234;2023-07-29T08:20:22;4.18;;;1.70;;
21356;SDS011;10836;53.068;18.234;2023-07-29T08:22:49;2.15;;;1.55;;
21356;SDS011;10836;53.068;18.234;2023-07-29T08:25:15;2.03;;;1.40;;
21356;SDS011;10836;53.068;18.234;2023-07-29T08:27:42;2.22;;;1.63;;
21356;SDS011;10836;53.068;18.234;2023-07-29T08:30:09;3.08;;;1.80;;
21356;SDS011;10836;53.068;18.234;2023-07-29T08:32:37;3.53;;;1.90;;
21356;SDS011;10836;53.068;18.234;2023-07-29T08:35:04;5.93;;;1.83;;
21356;SDS011;10836;53.068;18.234;2023-07-29T08:37:31;2.40;;;1.63;;
21356;SDS011;10836;53.068;18.234;2023-07-29T08:39:58;2.28;;;1.63;;
21356;SDS011;10836;53.068;18.234;2023-07-29T08:42:28;2.55;;;1.52;;
21356;SDS011;10836;53.068;18.234;2023-07-29T08:45:00;6.82;;;1.63;;
21356;SDS011;10836;53.068;18.234;2023-07-29T08:47:33;3.85;;;1.63;;
21356;SDS011;10836;53.068;18.234;2023-07-29T08:50:00;7.75;;;2.20;;
21356;SDS011;10836;53.068;18.234;2023-07-29T08:52:29;5.53;;;2.40;;
21356;SDS011;10836;53.068;18.234;2023-07-29T08:54:56;5.28;;;2.70;;
21356;SDS011;10836;53.068;18.234;2023-07-29T08:57:23;7.53;;;2.85;;
21356;SDS011;10836;53.068;18.234;2023-07-29T08:59:51;4.35;;;2.20;;
21356;SDS011;10836;53.068;18.234;2023-07-29T09:02:18;5.32;;;2.20;;
21356;SDS011;10836;53.068;18.234;2023-07-29T09:04:44;3.60;;;2.40;;
21356;SDS011;10836;53.068;18.234;2023-07-29T09:07:12;6.60;;;1.95;;
21356;SDS011;10836;53.068;18.234;2023-07-29T09:09:39;6.30;;;2.25;;
21356;SDS011;10836;53.068;18.234;2023-07-29T09:12:07;6.72;;;2.40;;
21356;SDS011;10836;53.068;18.234;2023-07-29T09:14:35;3.20;;;2.00;;
21356;SDS011;10836;53.068;18.234;2023-07-29T09:17:06;9.30;;;2.00;;
21356;SDS011;10836;53.068;18.234;2023-07-29T09:19:33;3.90;;;1.85;;
21356;SDS011;10836;53.068;18.234;2023-07-29T09:22:01;4.07;;;1.67;;
21356;SDS011;10836;53.068;18.234;2023-07-29T09:24:28;3.80;;;1.77;;
21356;SDS011;10836;53.068;18.234;2023-07-29T09:26:59;4.95;;;1.77;;
21356;SDS011;10836;53.068;18.234;2023-07-29T09:29:27;2.72;;;1.75;;
21356;SDS011;10836;53.068;18.234;2023-07-29T09:32:17;2.72;;;1.60;;
21356;SDS011;10836;53.068;18.234;2023-07-29T09:34:48;2.85;;;1.50;;
21356;SDS011;10836;53.068;18.234;2023-07-29T09:37:16;2.15;;;1.45;;
21356;SDS011;10836;53.068;18.234;2023-07-29T09:39:45;2.22;;;1.30;;
21356;SDS011;10836;53.068;18.234;2023-07-29T09:42:20;1.42;;;1.30;;
21356;SDS011;10836;53.068;18.234;2023-07-29T09:44:49;2.15;;;1.45;;
21356;SDS011;10836;53.068;18.234;2023-07-29T09:47:20;1.83;;;1.27;;
21356;SDS011;10836;53.068;18.234;2023-07-29T09:49:49;2.05;;;1.30;;
21356;SDS011;10836;53.068;18.234;2023-07-29T09:52:17;2.50;;;1.50;;
21356;SDS011;10836;53.068;18.234;2023-07-29T09:54:46;2.38;;;1.30;;
21356;SDS011;10836;53.068;18.234;2023-07-29T09:57:15;3.85;;;1.98;;
21356;SDS011;10836;53.068;18.234;2023-07-29T09:59:54;1.98;;;1.45;;
21356;SDS011;10836;53.068;18.234;2023-07-29T10:02:22;2.08;;;1.35;;
21356;SDS011;10836;53.068;18.234;2023-07-29T10:04:54;2.45;;;1.55;;
21356;SDS011;10836;53.068;18.234;2023-07-29T10:07:23;1.42;;;1.13;;
21356;SDS011;10836;53.068;18.234;2023-07-29T10:09:51;2.63;;;1.42;;
21356;SDS011;10836;53.068;18.234;2023-07-29T10:12:19;2.78;;;1.63;;
21356;SDS011;10836;53.068;18.234;2023-07-29T10:14:48;3.88;;;1.20;;
21356;SDS011;10836;53.068;18.234;2023-07-29T10:17:16;10.30;;;1.80;;
21356;SDS011;10836;53.068;18.234;2023-07-29T10:19:46;1.58;;;1.40;;
21356;SDS011;10836;53.068;18.234;2023-07-29T10:22:14;3.28;;;1.33;;
21356;SDS011;10836;53.068;18.234;2023-07-29T10:24:46;4.80;;;1.52;;
21356;SDS011;10836;53.068;18.234;2023-07-29T10:27:15;2.15;;;1.40;;
21356;SDS011;10836;53.068;18.234;2023-07-29T10:29:45;4.50;;;1.38;;
21356;SDS011;10836;53.068;18.234;2023-07-29T10:32:13;3.33;;;1.50;;
21356;SDS011;10836;53.068;18.234;2023-07-29T10:34:41;1.35;;;1.10;;
21356;SDS011;10836;53.068;18.234;2023-07-29T10:37:09;1.83;;;1.13;;
21356;SDS011;10836;53.068;18.234;2023-07-29T10:39:39;5.88;;;1.17;;
21356;SDS011;10836;53.068;18.234;2023-07-29T10:42:07;2.95;;;1.30;;
21356;SDS011;10836;53.068;18.234;2023-07-29T10:47:31;1.73;;;1.25;;
21356;SDS011;10836;53.068;18.234;2023-07-29T10:49:59;2.42;;;1.38;;
21356;SDS011;10836;53.068;18.234;2023-07-29T10:55:02;3.25;;;1.42;;
21356;SDS011;10836;53.068;18.234;2023-07-29T10:57:32;2.85;;;1.17;;
21356;SDS011;10836;53.068;18.234;2023-07-29T11:00:00;1.75;;;1.17;;
21356;SDS011;10836;53.068;18.234;2023-07-29T11:02:31;2.40;;;1.20;;
21356;SDS011;10836;53.068;18.234;2023-07-29T11:05:16;1.67;;;0.95;;
21356;SDS011;10836;53.068;18.234;2023-07-29T11:07:48;5.07;;;1.00;;
21356;SDS011;10836;53.068;18.234;2023-07-29T11:10:15;4.53;;;0.90;;
21356;SDS011;10836;53.068;18.234;2023-07-29T11:12:44;2.03;;;0.95;;
21356;SDS011;10836;53.068;18.234;2023-07-29T11:15:13;1.40;;;1.00;;
21356;SDS011;10836;53.068;18.234;2023-07-29T11:17:55;5.20;;;1.10;;
21356;SDS011;10836;53.068;18.234;2023-07-29T11:20:23;2.15;;;1.08;;
21356;SDS011;10836;53.068;18.234;2023-07-29T11:22:55;1.17;;;1.08;;
21356;SDS011;10836;53.068;18.234;2023-07-29T11:25:24;1.17;;;1.00;;
21356;SDS011;10836;53.068;18.234;2023-07-29T11:27:52;1.45;;;1.05;;
21356;SDS011;10836;53.068;18.234;2023-07-29T11:30:20;0.98;;;0.90;;
21356;SDS011;10836;53.068;18.234;2023-07-29T11:32:49;1.17;;;1.08;;
21356;SDS011;10836;53.068;18.234;2023-07-29T11:35:17;1.17;;;0.93;;
21356;SDS011;10836;53.068;18.234;2023-07-29T11:37:46;1.55;;;1.00;;
21356;SDS011;10836;53.068;18.234;2023-07-29T11:40:18;2.08;;;0.90;;
21356;SDS011;10836;53.068;18.234;2023-07-29T11:42:47;1.27;;;0.90;;
21356;SDS011;10836;53.068;18.234;2023-07-29T11:45:17;2.63;;;1.10;;
21356;SDS011;10836;53.068;18.234;2023-07-29T11:47:45;1.00;;;0.80;;
21356;SDS011;10836;53.068;18.234;2023-07-29T11:50:13;3.00;;;1.00;;
21356;SDS011;10836;53.068;18.234;2023-07-29T11:52:45;1.00;;;0.82;;
21356;SDS011;10836;53.068;18.234;2023-07-29T11:55:13;3.17;;;1.17;;
21356;SDS011;10836;53.068;18.234;2023-07-29T11:57:42;4.93;;;0.80;;
21356;SDS011;10836;53.068;18.234;2023-07-29T12:00:10;1.38;;;1.10;;
21356;SDS011;10836;53.068;18.234;2023-07-29T12:02:40;1.48;;;0.80;;
21356;SDS011;10836;53.068;18.234;2023-07-29T12:05:13;5.82;;;1.38;;
21356;SDS011;10836;53.068;18.234;2023-07-29T12:07:42;2.15;;;0.93;;
21356;SDS011;10836;53.068;18.234;2023-07-29T12:10:10;0.90;;;0.88;;
21356;SDS011;10836;53.068;18.234;2023-07-29T12:12:45;1.63;;;1.00;;
21356;SDS011;10836;53.068;18.234;2023-07-29T12:15:28;1.23;;;1.10;;
21356;SDS011;10836;53.068;18.234;2023-07-29T12:17:56;6.95;;;0.77;;
21356;SDS011;10836;53.068;18.234;2023-07-29T12:20:28;2.50;;;1.00;;
21356;SDS011;10836;53.068;18.234;2023-07-29T12:22:57;1.67;;;1.00;;
21356;SDS011;10836;53.068;18.234;2023-07-29T12:25:28;3.33;;;1.10;;
21356;SDS011;10836;53.068;18.234;2023-07-29T12:27:55;4.90;;;1.05;;
21356;SDS011;10836;53.068;18.234;2023-07-29T12:30:23;0.93;;;0.88;;
21356;SDS011;10836;53.068;18.234;2023-07-29T12:32:51;1.38;;;1.10;;
21356;SDS011;10836;53.068;18.234;2023-07-29T12:35:19;0.80;;;0.80;;
21356;SDS011;10836;53.068;18.234;2023-07-29T12:37:46;1.40;;;1.00;;
21356;SDS011;10836;53.068;18.234;2023-07-29T12:40:25;1.75;;;1.30;;
21356;SDS011;10836;53.068;18.234;2023-07-29T12:42:52;1.02;;;0.93;;
21356;SDS011;10836;53.068;18.234;2023-07-29T12:45:20;2.60;;;1.25;;
21356;SDS011;10836;53.068;18.234;2023-07-29T12:47:50;2.30;;;1.50;;
21356;SDS011;10836;53.068;18.234;2023-07-29T12:50:17;2.50;;;1.13;;
21356;SDS011;10836;53.068;18.234;2023-07-29T12:52:44;1.63;;;1.38;;
21356;SDS011;10836;53.068;18.234;2023-07-29T12:55:11;1.55;;;1.17;;
21356;SDS011;10836;53.068;18.234;2023-07-29T12:57:43;1.77;;;1.40;;
21356;SDS011;10836;53.068;18.234;2023-07-29T13:00:10;4.53;;;1.25;;
21356;SDS011;10836;53.068;18.234;2023-07-29T13:02:38;1.65;;;1.42;;
21356;SDS011;10836;53.068;18.234;2023-07-29T13:05:05;1.77;;;1.40;;
21356;SDS011;10836;53.068;18.234;2023-07-29T13:07:39;1.95;;;1.20;;
21356;SDS011;10836;53.068;18.234;2023-07-29T13:10:07;2.28;;;1.40;;
21356;SDS011;10836;53.068;18.234;2023-07-29T13:12:37;3.60;;;1.42;;
21356;SDS011;10836;53.068;18.234;2023-07-29T13:15:05;1.92;;;1.30;;
21356;SDS011;10836;53.068;18.234;2023-07-29T13:17:33;3.15;;;1.20;;
21356;SDS011;10836;53.068;18.234;2023-07-29T13:20:00;2.45;;;1.30;;
21356;SDS011;10836;53.068;18.234;2023-07-29T13:22:27;1.48;;;1.38;;
21356;SDS011;10836;53.068;18.234;2023-07-29T13:24:54;4.45;;;1.30;;
21356;SDS011;10836;53.068;18.234;2023-07-29T13:27:21;3.85;;;1.30;;
21356;SDS011;10836;53.068;18.234;2023-07-29T13:29:49;1.40;;;1.30;;
21356;SDS011;10836;53.068;18.234;2023-07-29T13:32:16;2.65;;;1.50;;
21356;SDS011;10836;53.068;18.234;2023-07-29T13:34:43;1.40;;;1.30;;
21356;SDS011;10836;53.068;18.234;2023-07-29T13:37:10;3.08;;;1.90;;
21356;SDS011;10836;53.068;18.234;2023-07-29T13:39:37;2.38;;;1.30;;
21356;SDS011;10836;53.068;18.234;2023-07-29T13:42:04;1.85;;;1.20;;
21356;SDS011;10836;53.068;18.234;2023-07-29T13:44:31;1.70;;;1.40;;
21356;SDS011;10836;53.068;18.234;2023-07-29T13:46:58;1.92;;;1.20;;
21356;SDS011;10836;53.068;18.234;2023-07-29T13:49:25;5.95;;;1.40;;
21356;SDS011;10836;53.068;18.234;2023-07-29T13:51:53;2.97;;;1.88;;
21356;SDS011;10836;53.068;18.234;2023-07-29T13:54:20;4.90;;;1.88;;
21356;SDS011;10836;53.068;18.234;2023-07-29T13:56:49;1.65;;;1.50;;
21356;SDS011;10836;53.068;18.234;2023-07-29T13:59:16;24.58;;;2.10;;
21356;SDS011;10836;53.068;18.234;2023-07-29T14:01:43;3.97;;;1.63;;
21356;SDS011;10836;53.068;18.234;2023-07-29T14:04:10;1.60;;;1.30;;
21356;SDS011;10836;53.068;18.234;2023-07-29T14:06:37;3.75;;;1.70;;
21356;SDS011;10836;53.068;18.234;2023-07-29T14:09:07;2.53;;;1.77;;
21356;SDS011;10836;53.068;18.234;2023-07-29T14:11:34;5.80;;;1.77;;
21356;SDS011;10836;53.068;18.234;2023-07-29T14:14:01;2.17;;;1.70;;
21356;SDS011;10836;53.068;18.234;2023-07-29T14:16:29;2.50;;;1.60;;
21356;SDS011;10836;53.068;18.234;2023-07-29T14:18:55;2.47;;;1.90;;
21356;SDS011;10836;53.068;18.234;2023-07-29T14:21:22;2.95;;;1.73;;
21356;SDS011;10836;53.068;18.234;2023-07-29T14:23:49;4.00;;;1.40;;
21356;SDS011;10836;53.068;18.234;2023-07-29T14:26:16;2.90;;;1.67;;
21356;SDS011;10836;53.068;18.234;2023-07-29T14:28:43;2.30;;;1.75;;
21356;SDS011;10836;53.068;18.234;2023-07-29T14:31:10;5.93;;;2.00;;
21356;SDS011;10836;53.068;18.234;2023-07-29T14:33:37;2.03;;;1.60;;
21356;SDS011;10836;53.068;18.234;2023-07-29T14:36:04;2.13;;;1.67;;
21356;SDS011;10836;53.068;18.234;2023-07-29T14:38:34;2.17;;;1.70;;
21356;SDS011;10836;53.068;18.234;2023-07-29T14:41:02;2.50;;;2.10;;
21356;SDS011;10836;53.068;18.234;2023-07-29T14:43:30;3.65;;;1.80;;
21356;SDS011;10836;53.068;18.234;2023-07-29T14:45:57;3.20;;;1.90;;